Ana Sayfa
METAR-TAF:

METAR-TAF

Havaalanları :

Ujgorod, Ukrayna

Enlem: 48-38-05N, Boylam: 022-15-53E, yükseklik: 117 m

Güncel hava durumu gözlemi

Rapor saat 04:00 UTC de 1 saat ve 13 dakika önce yapıldı.
Sakin rüzgar
Sıcaklık -6°C
Nem 79%
Basınç 1024 hPa
Görüş mesafesi 10 km veya daha fazla

METAR: UKLU 010400Z 00000MPS 9999 NSC M06/M09 Q1024 NOSIG

Saat: 08:13 (05:13 UTC)

Tahmin

Rapor saat 03:03 UTC de 2 saat ve 10 dakika önce yapıldı.
Ayın 01'si saat 03 UTC'den ayın 01'si saat 12 UTC'ye kadar geçerli Tahmin
Rüzgar değişken yönden 2 kt
Görüş mesafesi 10 km veya daha fazla

TAF: UKLU 010303Z 0103/0112 VRB01MPS 9999 NSC TX08/0112Z TNM05/0103Z

4.000'den fazla havaalanı için hava durumu gözlemleri ve tahminleri (METAR ve TAF raporları).

Kullanılabilir istasyonlar harita üzerinde sarı ve kırmızı noktalarla gösterilir.

İstasyonun adını görmek için fareyi noktanın üzerinde gezdirin.

Sonrasında hava gözlem ve tahminlerini görmek için tıklayın.

Haritayı değiştirmek için: yaklaştırmak için siyah artı işaretli yeşil düğmeye ve uzaklaştırmak için de eksi işaretli düğmeye hızla tıklayın; bitişik haritalar için yeşil okları kullanın.


METAR-TAF: